sensor_id;sensor_type;location;lat;lon;timestamp;P1;durP1;ratioP1;P2;durP2;ratioP2
23732;SDS011;12047;53.450;-2.286;2023-12-20T00:01:40;27.70;;;3.72;;
23732;SDS011;12047;53.450;-2.286;2023-12-20T00:06:41;29.80;;;4.55;;
23732;SDS011;12047;53.450;-2.286;2023-12-20T00:11:41;26.48;;;3.70;;
23732;SDS011;12047;53.450;-2.286;2023-12-20T00:16:42;25.67;;;3.80;;
23732;SDS011;12047;53.450;-2.286;2023-12-20T00:21:42;22.67;;;3.95;;
23732;SDS011;12047;53.450;-2.286;2023-12-20T00:26:43;19.90;;;3.75;;
23732;SDS011;12047;53.450;-2.286;2023-12-20T00:31:43;24.92;;;4.38;;
23732;SDS011;12047;53.450;-2.286;2023-12-20T00:36:44;20.63;;;3.20;;
23732;SDS011;12047;53.450;-2.286;2023-12-20T00:41:44;24.83;;;3.47;;
23732;SDS011;12047;53.450;-2.286;2023-12-20T00:46:45;21.65;;;3.28;;
23732;SDS011;12047;53.450;-2.286;2023-12-20T00:51:45;25.40;;;3.35;;
23732;SDS011;12047;53.450;-2.286;2023-12-20T00:56:47;25.30;;;3.92;;
23732;SDS011;12047;53.450;-2.286;2023-12-20T01:01:47;28.60;;;4.28;;
23732;SDS011;12047;53.450;-2.286;2023-12-20T01:06:47;21.70;;;3.10;;
23732;SDS011;12047;53.450;-2.286;2023-12-20T01:11:48;29.33;;;3.83;;
23732;SDS011;12047;53.450;-2.286;2023-12-20T01:16:49;28.48;;;4.38;;
23732;SDS011;12047;53.450;-2.286;2023-12-20T01:21:49;28.38;;;3.80;;
23732;SDS011;12047;53.450;-2.286;2023-12-20T01:26:50;32.35;;;4.53;;
23732;SDS011;12047;53.450;-2.286;2023-12-20T01:31:50;28.23;;;4.15;;
23732;SDS011;12047;53.450;-2.286;2023-12-20T01:36:51;34.08;;;4.32;;
23732;SDS011;12047;53.450;-2.286;2023-12-20T01:41:51;33.50;;;4.55;;
23732;SDS011;12047;53.450;-2.286;2023-12-20T01:46:52;26.73;;;4.07;;
23732;SDS011;12047;53.450;-2.286;2023-12-20T01:51:55;23.67;;;4.22;;
23732;SDS011;12047;53.450;-2.286;2023-12-20T01:56:56;26.58;;;4.57;;
23732;SDS011;12047;53.450;-2.286;2023-12-20T02:01:58;28.83;;;4.45;;
23732;SDS011;12047;53.450;-2.286;2023-12-20T02:06:58;26.67;;;3.63;;
23732;SDS011;12047;53.450;-2.286;2023-12-20T02:11:59;31.52;;;4.47;;
23732;SDS011;12047;53.450;-2.286;2023-12-20T02:17:00;31.90;;;4.50;;
23732;SDS011;12047;53.450;-2.286;2023-12-20T02:22:10;32.13;;;4.15;;
23732;SDS011;12047;53.450;-2.286;2023-12-20T02:27:11;23.85;;;4.28;;
23732;SDS011;12047;53.450;-2.286;2023-12-20T02:32:12;29.63;;;4.43;;
23732;SDS011;12047;53.450;-2.286;2023-12-20T02:37:12;21.90;;;4.03;;
23732;SDS011;12047;53.450;-2.286;2023-12-20T02:42:13;33.47;;;4.63;;
23732;SDS011;12047;53.450;-2.286;2023-12-20T02:47:13;35.38;;;4.10;;
23732;SDS011;12047;53.450;-2.286;2023-12-20T02:52:14;26.58;;;4.25;;
23732;SDS011;12047;53.450;-2.286;2023-12-20T02:57:14;21.83;;;4.22;;
23732;SDS011;12047;53.450;-2.286;2023-12-20T03:02:15;27.40;;;4.60;;
23732;SDS011;12047;53.450;-2.286;2023-12-20T03:07:15;27.27;;;4.10;;
23732;SDS011;12047;53.450;-2.286;2023-12-20T03:12:15;25.13;;;3.70;;
23732;SDS011;12047;53.450;-2.286;2023-12-20T03:17:16;31.92;;;4.20;;
23732;SDS011;12047;53.450;-2.286;2023-12-20T03:22:16;36.30;;;4.35;;
23732;SDS011;12047;53.450;-2.286;2023-12-20T03:27:17;28.02;;;4.18;;
23732;SDS011;12047;53.450;-2.286;2023-12-20T03:32:17;29.33;;;5.05;;
23732;SDS011;12047;53.450;-2.286;2023-12-20T03:37:18;22.27;;;3.90;;
23732;SDS011;12047;53.450;-2.286;2023-12-20T03:42:18;27.10;;;4.05;;
23732;SDS011;12047;53.450;-2.286;2023-12-20T03:47:19;20.60;;;4.10;;
23732;SDS011;12047;53.450;-2.286;2023-12-20T03:52:19;24.40;;;4.43;;
23732;SDS011;12047;53.450;-2.286;2023-12-20T03:57:19;23.60;;;3.72;;
23732;SDS011;12047;53.450;-2.286;2023-12-20T04:02:20;26.30;;;3.92;;
23732;SDS011;12047;53.450;-2.286;2023-12-20T04:07:20;23.15;;;4.00;;
23732;SDS011;12047;53.450;-2.286;2023-12-20T04:12:21;27.17;;;4.55;;
23732;SDS011;12047;53.450;-2.286;2023-12-20T04:17:21;27.67;;;4.45;;
23732;SDS011;12047;53.450;-2.286;2023-12-20T04:22:24;23.58;;;3.60;;
23732;SDS011;12047;53.450;-2.286;2023-12-20T04:27:25;21.40;;;3.92;;
23732;SDS011;12047;53.450;-2.286;2023-12-20T04:32:25;30.42;;;4.55;;
23732;SDS011;12047;53.450;-2.286;2023-12-20T04:37:29;20.90;;;4.10;;
23732;SDS011;12047;53.450;-2.286;2023-12-20T04:42:29;22.33;;;3.25;;
23732;SDS011;12047;53.450;-2.286;2023-12-20T04:47:30;27.17;;;4.10;;
23732;SDS011;12047;53.450;-2.286;2023-12-20T04:52:30;26.08;;;3.75;;
23732;SDS011;12047;53.450;-2.286;2023-12-20T04:57:31;24.88;;;4.25;;
23732;SDS011;12047;53.450;-2.286;2023-12-20T05:02:31;25.30;;;3.55;;
23732;SDS011;12047;53.450;-2.286;2023-12-20T05:07:35;20.38;;;3.55;;
23732;SDS011;12047;53.450;-2.286;2023-12-20T05:12:35;28.27;;;3.80;;
23732;SDS011;12047;53.450;-2.286;2023-12-20T05:17:36;19.73;;;3.35;;
23732;SDS011;12047;53.450;-2.286;2023-12-20T05:22:36;26.23;;;3.90;;
23732;SDS011;12047;53.450;-2.286;2023-12-20T05:27:37;17.63;;;3.15;;
23732;SDS011;12047;53.450;-2.286;2023-12-20T05:32:37;22.17;;;3.10;;
23732;SDS011;12047;53.450;-2.286;2023-12-20T05:37:38;26.00;;;3.20;;
23732;SDS011;12047;53.450;-2.286;2023-12-20T05:42:38;27.42;;;3.58;;
23732;SDS011;12047;53.450;-2.286;2023-12-20T05:47:38;24.23;;;3.38;;
23732;SDS011;12047;53.450;-2.286;2023-12-20T05:52:39;22.23;;;4.05;;
23732;SDS011;12047;53.450;-2.286;2023-12-20T05:57:41;24.05;;;3.33;;
23732;SDS011;12047;53.450;-2.286;2023-12-20T06:02:44;18.77;;;3.05;;
23732;SDS011;12047;53.450;-2.286;2023-12-20T06:07:45;24.30;;;2.88;;
23732;SDS011;12047;53.450;-2.286;2023-12-20T06:12:47;21.95;;;3.20;;
23732;SDS011;12047;53.450;-2.286;2023-12-20T06:17:50;23.55;;;3.33;;
23732;SDS011;12047;53.450;-2.286;2023-12-20T06:22:50;25.77;;;3.90;;
23732;SDS011;12047;53.450;-2.286;2023-12-20T06:27:51;29.27;;;3.92;;
23732;SDS011;12047;53.450;-2.286;2023-12-20T06:32:51;25.23;;;3.72;;
23732;SDS011;12047;53.450;-2.286;2023-12-20T06:37:52;19.55;;;3.10;;
23732;SDS011;12047;53.450;-2.286;2023-12-20T06:42:53;16.50;;;2.88;;
23732;SDS011;12047;53.450;-2.286;2023-12-20T06:47:54;21.38;;;2.97;;
23732;SDS011;12047;53.450;-2.286;2023-12-20T06:52:54;25.13;;;3.65;;
23732;SDS011;12047;53.450;-2.286;2023-12-20T06:57:55;15.98;;;3.47;;
23732;SDS011;12047;53.450;-2.286;2023-12-20T07:02:55;17.33;;;2.80;;
23732;SDS011;12047;53.450;-2.286;2023-12-20T07:07:57;22.35;;;2.90;;
23732;SDS011;12047;53.450;-2.286;2023-12-20T07:12:58;16.08;;;2.22;;
23732;SDS011;12047;53.450;-2.286;2023-12-20T07:17:58;20.42;;;3.05;;
23732;SDS011;12047;53.450;-2.286;2023-12-20T07:23:00;24.27;;;3.67;;
23732;SDS011;12047;53.450;-2.286;2023-12-20T07:28:01;18.65;;;2.80;;
23732;SDS011;12047;53.450;-2.286;2023-12-20T07:33:01;17.92;;;2.63;;
23732;SDS011;12047;53.450;-2.286;2023-12-20T07:38:02;19.58;;;2.50;;
23732;SDS011;12047;53.450;-2.286;2023-12-20T07:43:03;19.73;;;2.58;;
23732;SDS011;12047;53.450;-2.286;2023-12-20T07:48:04;16.95;;;3.00;;
23732;SDS011;12047;53.450;-2.286;2023-12-20T07:53:05;14.48;;;2.78;;
23732;SDS011;12047;53.450;-2.286;2023-12-20T07:58:06;16.25;;;3.13;;
23732;SDS011;12047;53.450;-2.286;2023-12-20T08:03:06;19.13;;;2.70;;
23732;SDS011;12047;53.450;-2.286;2023-12-20T08:08:07;22.67;;;2.90;;
23732;SDS011;12047;53.450;-2.286;2023-12-20T08:13:08;22.77;;;3.53;;
23732;SDS011;12047;53.450;-2.286;2023-12-20T08:18:08;18.08;;;2.50;;
23732;SDS011;12047;53.450;-2.286;2023-12-20T08:23:09;17.73;;;2.70;;
23732;SDS011;12047;53.450;-2.286;2023-12-20T08:28:09;15.98;;;1.95;;
23732;SDS011;12047;53.450;-2.286;2023-12-20T08:33:10;18.25;;;2.67;;
23732;SDS011;12047;53.450;-2.286;2023-12-20T08:38:12;17.17;;;2.28;;
23732;SDS011;12047;53.450;-2.286;2023-12-20T08:43:13;16.75;;;2.70;;
23732;SDS011;12047;53.450;-2.286;2023-12-20T08:48:13;21.70;;;2.42;;
23732;SDS011;12047;53.450;-2.286;2023-12-20T08:53:15;22.90;;;3.63;;
23732;SDS011;12047;53.450;-2.286;2023-12-20T08:58:17;29.02;;;5.43;;
23732;SDS011;12047;53.450;-2.286;2023-12-20T09:03:17;21.35;;;3.40;;
23732;SDS011;12047;53.450;-2.286;2023-12-20T09:08:17;23.27;;;3.80;;
23732;SDS011;12047;53.450;-2.286;2023-12-20T09:13:24;24.45;;;3.30;;
23732;SDS011;12047;53.450;-2.286;2023-12-20T09:18:28;21.50;;;3.58;;
23732;SDS011;12047;53.450;-2.286;2023-12-20T09:23:28;20.88;;;3.13;;
23732;SDS011;12047;53.450;-2.286;2023-12-20T09:28:29;24.92;;;3.53;;
23732;SDS011;12047;53.450;-2.286;2023-12-20T09:33:29;19.45;;;2.92;;
23732;SDS011;12047;53.450;-2.286;2023-12-20T09:38:29;23.05;;;3.33;;
23732;SDS011;12047;53.450;-2.286;2023-12-20T09:43:32;17.35;;;2.63;;
23732;SDS011;12047;53.450;-2.286;2023-12-20T09:48:37;17.17;;;2.42;;
23732;SDS011;12047;53.450;-2.286;2023-12-20T09:53:39;17.92;;;2.70;;
23732;SDS011;12047;53.450;-2.286;2023-12-20T09:58:41;21.35;;;3.95;;
23732;SDS011;12047;53.450;-2.286;2023-12-20T10:03:41;9.57;;;2.08;;
23732;SDS011;12047;53.450;-2.286;2023-12-20T10:08:43;9.23;;;1.88;;
23732;SDS011;12047;53.450;-2.286;2023-12-20T10:13:46;9.73;;;1.88;;
23732;SDS011;12047;53.450;-2.286;2023-12-20T10:18:48;12.18;;;2.25;;
23732;SDS011;12047;53.450;-2.286;2023-12-20T10:23:48;13.00;;;2.45;;
23732;SDS011;12047;53.450;-2.286;2023-12-20T10:28:55;11.80;;;2.25;;
23732;SDS011;12047;53.450;-2.286;2023-12-20T10:34:00;16.98;;;2.83;;
23732;SDS011;12047;53.450;-2.286;2023-12-20T10:39:04;14.13;;;2.00;;
23732;SDS011;12047;53.450;-2.286;2023-12-20T10:44:09;18.17;;;2.63;;
23732;SDS011;12047;53.450;-2.286;2023-12-20T10:49:11;19.55;;;2.50;;
23732;SDS011;12047;53.450;-2.286;2023-12-20T10:54:12;20.77;;;2.60;;
23732;SDS011;12047;53.450;-2.286;2023-12-20T10:59:13;24.42;;;3.63;;
23732;SDS011;12047;53.450;-2.286;2023-12-20T11:04:18;20.52;;;3.58;;
23732;SDS011;12047;53.450;-2.286;2023-12-20T11:09:31;19.27;;;3.15;;
23732;SDS011;12047;53.450;-2.286;2023-12-20T11:20:22;21.15;;;3.30;;
23732;SDS011;12047;53.450;-2.286;2023-12-20T11:25:08;19.45;;;3.10;;
23732;SDS011;12047;53.450;-2.286;2023-12-20T11:30:10;23.38;;;3.85;;
23732;SDS011;12047;53.450;-2.286;2023-12-20T11:40:13;15.80;;;2.90;;
23732;SDS011;12047;53.450;-2.286;2023-12-20T11:45:16;19.38;;;3.10;;
23732;SDS011;12047;53.450;-2.286;2023-12-20T11:50:22;15.73;;;2.63;;
23732;SDS011;12047;53.450;-2.286;2023-12-20T11:55:23;20.48;;;2.95;;
23732;SDS011;12047;53.450;-2.286;2023-12-20T12:00:26;18.13;;;2.78;;
23732;SDS011;12047;53.450;-2.286;2023-12-20T12:05:30;16.92;;;2.72;;
23732;SDS011;12047;53.450;-2.286;2023-12-20T12:10:31;17.95;;;3.55;;
23732;SDS011;12047;53.450;-2.286;2023-12-20T12:15:32;13.95;;;2.38;;
23732;SDS011;12047;53.450;-2.286;2023-12-20T12:20:32;18.50;;;3.08;;
23732;SDS011;12047;53.450;-2.286;2023-12-20T12:25:34;18.05;;;3.15;;
23732;SDS011;12047;53.450;-2.286;2023-12-20T12:30:40;16.33;;;3.60;;
23732;SDS011;12047;53.450;-2.286;2023-12-20T12:35:56;23.92;;;3.17;;
23732;SDS011;12047;53.450;-2.286;2023-12-20T12:40:57;29.63;;;3.85;;
23732;SDS011;12047;53.450;-2.286;2023-12-20T12:45:58;23.58;;;3.78;;
23732;SDS011;12047;53.450;-2.286;2023-12-20T12:50:59;22.20;;;3.42;;
23732;SDS011;12047;53.450;-2.286;2023-12-20T12:55:59;19.55;;;3.03;;
23732;SDS011;12047;53.450;-2.286;2023-12-20T13:01:00;22.25;;;3.72;;
23732;SDS011;12047;53.450;-2.286;2023-12-20T13:06:00;23.42;;;3.45;;
23732;SDS011;12047;53.450;-2.286;2023-12-20T13:11:01;20.23;;;3.60;;
23732;SDS011;12047;53.450;-2.286;2023-12-20T13:16:04;18.65;;;3.08;;
23732;SDS011;12047;53.450;-2.286;2023-12-20T13:21:05;21.77;;;3.63;;
23732;SDS011;12047;53.450;-2.286;2023-12-20T13:26:05;17.25;;;3.05;;
23732;SDS011;12047;53.450;-2.286;2023-12-20T13:31:07;21.52;;;3.40;;
23732;SDS011;12047;53.450;-2.286;2023-12-20T13:36:07;15.38;;;3.53;;
23732;SDS011;12047;53.450;-2.286;2023-12-20T13:41:08;18.98;;;3.45;;
23732;SDS011;12047;53.450;-2.286;2023-12-20T13:46:09;18.30;;;3.20;;
23732;SDS011;12047;53.450;-2.286;2023-12-20T13:51:09;19.88;;;2.95;;
23732;SDS011;12047;53.450;-2.286;2023-12-20T13:56:10;19.20;;;3.60;;
23732;SDS011;12047;53.450;-2.286;2023-12-20T14:01:10;15.32;;;2.97;;
23732;SDS011;12047;53.450;-2.286;2023-12-20T14:06:11;16.83;;;3.17;;
23732;SDS011;12047;53.450;-2.286;2023-12-20T14:11:13;12.38;;;2.47;;
23732;SDS011;12047;53.450;-2.286;2023-12-20T14:16:15;20.08;;;3.92;;
23732;SDS011;12047;53.450;-2.286;2023-12-20T14:21:31;26.98;;;3.50;;
23732;SDS011;12047;53.450;-2.286;2023-12-20T14:26:31;24.83;;;4.47;;
23732;SDS011;12047;53.450;-2.286;2023-12-20T14:31:32;20.05;;;4.18;;
23732;SDS011;12047;53.450;-2.286;2023-12-20T14:36:34;21.02;;;3.88;;
23732;SDS011;12047;53.450;-2.286;2023-12-20T14:41:35;21.35;;;3.42;;
23732;SDS011;12047;53.450;-2.286;2023-12-20T14:46:35;33.72;;;10.73;;
23732;SDS011;12047;53.450;-2.286;2023-12-20T14:51:36;31.92;;;5.40;;
23732;SDS011;12047;53.450;-2.286;2023-12-20T14:56:37;24.63;;;3.95;;
23732;SDS011;12047;53.450;-2.286;2023-12-20T15:01:37;26.92;;;4.55;;
23732;SDS011;12047;53.450;-2.286;2023-12-20T15:06:40;26.15;;;4.47;;
23732;SDS011;12047;53.450;-2.286;2023-12-20T15:11:41;29.45;;;4.60;;
23732;SDS011;12047;53.450;-2.286;2023-12-20T15:16:41;22.30;;;4.10;;
23732;SDS011;12047;53.450;-2.286;2023-12-20T15:21:42;32.67;;;4.38;;
23732;SDS011;12047;53.450;-2.286;2023-12-20T15:26:43;28.45;;;4.43;;
23732;SDS011;12047;53.450;-2.286;2023-12-20T15:31:43;26.77;;;4.03;;
23732;SDS011;12047;53.450;-2.286;2023-12-20T15:36:45;23.10;;;4.47;;
23732;SDS011;12047;53.450;-2.286;2023-12-20T15:41:46;28.65;;;4.70;;
23732;SDS011;12047;53.450;-2.286;2023-12-20T15:46:47;27.50;;;4.65;;
23732;SDS011;12047;53.450;-2.286;2023-12-20T15:51:47;31.77;;;5.10;;
23732;SDS011;12047;53.450;-2.286;2023-12-20T15:56:48;36.75;;;5.75;;
23732;SDS011;12047;53.450;-2.286;2023-12-20T16:01:49;29.33;;;5.68;;
23732;SDS011;12047;53.450;-2.286;2023-12-20T16:06:49;25.27;;;4.72;;
23732;SDS011;12047;53.450;-2.286;2023-12-20T16:11:50;29.27;;;4.55;;
23732;SDS011;12047;53.450;-2.286;2023-12-20T16:16:50;29.35;;;4.78;;
23732;SDS011;12047;53.450;-2.286;2023-12-20T16:21:51;22.42;;;4.28;;
23732;SDS011;12047;53.450;-2.286;2023-12-20T16:26:51;22.17;;;4.22;;
23732;SDS011;12047;53.450;-2.286;2023-12-20T16:31:52;16.77;;;3.78;;
23732;SDS011;12047;53.450;-2.286;2023-12-20T16:36:53;18.90;;;3.45;;
23732;SDS011;12047;53.450;-2.286;2023-12-20T16:41:54;16.77;;;4.13;;
23732;SDS011;12047;53.450;-2.286;2023-12-20T16:46:55;20.00;;;3.70;;
23732;SDS011;12047;53.450;-2.286;2023-12-20T16:51:55;17.45;;;3.38;;
23732;SDS011;12047;53.450;-2.286;2023-12-20T16:56:56;15.07;;;3.08;;
23732;SDS011;12047;53.450;-2.286;2023-12-20T17:01:56;21.40;;;4.47;;
23732;SDS011;12047;53.450;-2.286;2023-12-20T17:07:01;24.15;;;4.45;;
23732;SDS011;12047;53.450;-2.286;2023-12-20T17:12:02;17.70;;;3.40;;
23732;SDS011;12047;53.450;-2.286;2023-12-20T17:17:03;23.05;;;4.53;;
23732;SDS011;12047;53.450;-2.286;2023-12-20T17:22:04;29.98;;;4.50;;
23732;SDS011;12047;53.450;-2.286;2023-12-20T17:27:05;23.38;;;3.63;;
23732;SDS011;12047;53.450;-2.286;2023-12-20T17:32:06;17.75;;;2.95;;
23732;SDS011;12047;53.450;-2.286;2023-12-20T17:37:07;15.30;;;2.95;;
23732;SDS011;12047;53.450;-2.286;2023-12-20T17:42:07;13.07;;;3.30;;
23732;SDS011;12047;53.450;-2.286;2023-12-20T17:47:08;16.05;;;3.10;;
23732;SDS011;12047;53.450;-2.286;2023-12-20T17:52:10;16.70;;;3.60;;
23732;SDS011;12047;53.450;-2.286;2023-12-20T17:57:11;16.05;;;3.35;;
23732;SDS011;12047;53.450;-2.286;2023-12-20T18:02:11;17.65;;;3.85;;
23732;SDS011;12047;53.450;-2.286;2023-12-20T18:07:12;19.90;;;3.58;;
23732;SDS011;12047;53.450;-2.286;2023-12-20T18:12:13;16.52;;;3.13;;
23732;SDS011;12047;53.450;-2.286;2023-12-20T18:17:14;17.02;;;3.10;;
23732;SDS011;12047;53.450;-2.286;2023-12-20T18:22:14;14.07;;;3.05;;
23732;SDS011;12047;53.450;-2.286;2023-12-20T18:27:15;19.83;;;3.53;;
23732;SDS011;12047;53.450;-2.286;2023-12-20T18:32:18;15.52;;;3.38;;
23732;SDS011;12047;53.450;-2.286;2023-12-20T18:37:19;16.55;;;3.50;;
23732;SDS011;12047;53.450;-2.286;2023-12-20T18:42:19;11.68;;;3.00;;
23732;SDS011;12047;53.450;-2.286;2023-12-20T18:47:20;15.52;;;2.67;;
23732;SDS011;12047;53.450;-2.286;2023-12-20T18:52:21;14.32;;;2.58;;
23732;SDS011;12047;53.450;-2.286;2023-12-20T18:57:23;10.60;;;2.30;;
23732;SDS011;12047;53.450;-2.286;2023-12-20T19:02:23;12.90;;;2.15;;
23732;SDS011;12047;53.450;-2.286;2023-12-20T19:07:24;13.95;;;2.17;;
23732;SDS011;12047;53.450;-2.286;2023-12-20T19:12:24;10.68;;;2.03;;
23732;SDS011;12047;53.450;-2.286;2023-12-20T19:17:27;14.90;;;2.25;;
23732;SDS011;12047;53.450;-2.286;2023-12-20T19:22:27;12.30;;;2.28;;
23732;SDS011;12047;53.450;-2.286;2023-12-20T19:27:32;14.52;;;4.45;;
23732;SDS011;12047;53.450;-2.286;2023-12-20T19:32:33;9.82;;;2.17;;
23732;SDS011;12047;53.450;-2.286;2023-12-20T19:37:33;11.93;;;2.25;;
23732;SDS011;12047;53.450;-2.286;2023-12-20T19:42:33;6.20;;;1.45;;
23732;SDS011;12047;53.450;-2.286;2023-12-20T19:47:37;13.20;;;2.25;;
23732;SDS011;12047;53.450;-2.286;2023-12-20T19:52:38;9.23;;;1.30;;
23732;SDS011;12047;53.450;-2.286;2023-12-20T19:57:38;13.57;;;2.00;;
23732;SDS011;12047;53.450;-2.286;2023-12-20T20:02:39;12.68;;;2.03;;
23732;SDS011;12047;53.450;-2.286;2023-12-20T20:07:39;11.95;;;2.25;;
23732;SDS011;12047;53.450;-2.286;2023-12-20T20:12:40;7.88;;;1.90;;
23732;SDS011;12047;53.450;-2.286;2023-12-20T20:17:40;5.82;;;1.70;;
23732;SDS011;12047;53.450;-2.286;2023-12-20T20:22:41;7.53;;;1.65;;
23732;SDS011;12047;53.450;-2.286;2023-12-20T20:27:41;9.80;;;1.58;;
23732;SDS011;12047;53.450;-2.286;2023-12-20T20:32:42;9.98;;;1.80;;
23732;SDS011;12047;53.450;-2.286;2023-12-20T20:37:44;10.50;;;1.83;;
23732;SDS011;12047;53.450;-2.286;2023-12-20T20:42:45;8.77;;;1.60;;
23732;SDS011;12047;53.450;-2.286;2023-12-20T20:47:46;9.13;;;1.40;;
23732;SDS011;12047;53.450;-2.286;2023-12-20T20:52:47;9.10;;;1.60;;
23732;SDS011;12047;53.450;-2.286;2023-12-20T20:57:51;15.80;;;2.55;;
23732;SDS011;12047;53.450;-2.286;2023-12-20T21:02:52;10.30;;;1.63;;
23732;SDS011;12047;53.450;-2.286;2023-12-20T21:07:52;7.68;;;2.00;;
23732;SDS011;12047;53.450;-2.286;2023-12-20T21:12:55;13.88;;;1.77;;
23732;SDS011;12047;53.450;-2.286;2023-12-20T21:17:55;8.60;;;1.73;;
23732;SDS011;12047;53.450;-2.286;2023-12-20T21:22:56;8.07;;;1.70;;
23732;SDS011;12047;53.450;-2.286;2023-12-20T21:27:58;10.93;;;1.80;;
23732;SDS011;12047;53.450;-2.286;2023-12-20T21:32:59;8.43;;;1.85;;
23732;SDS011;12047;53.450;-2.286;2023-12-20T21:38:02;4.55;;;1.20;;
23732;SDS011;12047;53.450;-2.286;2023-12-20T21:43:03;4.47;;;1.30;;
23732;SDS011;12047;53.450;-2.286;2023-12-20T21:48:04;7.55;;;1.58;;
23732;SDS011;12047;53.450;-2.286;2023-12-20T21:53:05;9.35;;;1.58;;
23732;SDS011;12047;53.450;-2.286;2023-12-20T21:58:10;8.13;;;1.75;;
23732;SDS011;12047;53.450;-2.286;2023-12-20T22:03:10;9.38;;;1.95;;
23732;SDS011;12047;53.450;-2.286;2023-12-20T22:08:11;8.98;;;2.17;;
23732;SDS011;12047;53.450;-2.286;2023-12-20T22:13:12;9.35;;;2.47;;
23732;SDS011;12047;53.450;-2.286;2023-12-20T22:18:12;9.18;;;1.83;;
23732;SDS011;12047;53.450;-2.286;2023-12-20T22:23:15;10.25;;;2.30;;
23732;SDS011;12047;53.450;-2.286;2023-12-20T22:28:16;12.07;;;2.45;;
23732;SDS011;12047;53.450;-2.286;2023-12-20T22:33:19;10.35;;;2.20;;
23732;SDS011;12047;53.450;-2.286;2023-12-20T22:38:20;11.10;;;2.20;;
23732;SDS011;12047;53.450;-2.286;2023-12-20T22:43:20;13.32;;;2.30;;
23732;SDS011;12047;53.450;-2.286;2023-12-20T22:48:21;8.82;;;2.20;;
23732;SDS011;12047;53.450;-2.286;2023-12-20T22:53:21;8.65;;;1.80;;
23732;SDS011;12047;53.450;-2.286;2023-12-20T22:58:22;15.10;;;2.20;;
23732;SDS011;12047;53.450;-2.286;2023-12-20T23:03:23;11.52;;;2.15;;
23732;SDS011;12047;53.450;-2.286;2023-12-20T23:08:25;16.80;;;2.67;;
23732;SDS011;12047;53.450;-2.286;2023-12-20T23:13:26;19.80;;;3.30;;
23732;SDS011;12047;53.450;-2.286;2023-12-20T23:18:26;22.13;;;3.45;;
23732;SDS011;12047;53.450;-2.286;2023-12-20T23:23:27;13.68;;;2.97;;
23732;SDS011;12047;53.450;-2.286;2023-12-20T23:28:27;15.30;;;3.20;;
23732;SDS011;12047;53.450;-2.286;2023-12-20T23:33:28;17.95;;;3.22;;
23732;SDS011;12047;53.450;-2.286;2023-12-20T23:38:28;17.23;;;3.63;;
23732;SDS011;12047;53.450;-2.286;2023-12-20T23:43:29;15.90;;;2.90;;
23732;SDS011;12047;53.450;-2.286;2023-12-20T23:48:30;17.42;;;2.92;;
23732;SDS011;12047;53.450;-2.286;2023-12-20T23:53:30;18.15;;;2.78;;
23732;SDS011;12047;53.450;-2.286;2023-12-20T23:58:31;21.55;;;3.38;;
